Time;durP1;ratioP1;P1;durP2;ratioP2;P2;SDS_P1;SDS_P2;PMS_P1;PMS_P2;Temp;Humidity;BMP_temperature;BMP_pressure;BME280_temperature;BME280_humidity;BME280_pressure;Samples;Min_cycle;Max_cycle;Signal;HPM_P1;HPM_P2
2024/03/04 00:00:12;;;;;;;34.33;15.20;;;8.00;99.90;;;;;;5090171;28;20277;-74
2024/03/04 00:02:41;;;;;;;28.05;14.85;;;8.00;99.90;;;;;;5087554;28;20045;-73
2024/03/04 00:05:10;;;;;;;30.27;15.57;;;8.00;99.90;;;;;;5089802;28;20078;-74
2024/03/04 00:07:38;;;;;;;31.65;15.95;;;7.90;99.90;;;;;;5092198;28;20045;-73
2024/03/04 00:10:11;;;;;;;31.73;15.15;;;7.90;99.90;;;;;;5093561;28;20525;-73
2024/03/04 00:12:40;;;;;;;30.27;15.15;;;7.90;99.90;;;;;;5096846;28;20437;-73
2024/03/04 00:15:09;;;;;;;31.75;15.60;;;7.90;99.90;;;;;;5084586;28;20080;-73
2024/03/04 00:17:37;;;;;;;31.13;16.17;;;7.80;99.90;;;;;;5093201;28;20089;-73
2024/03/04 00:20:09;;;;;;;30.30;16.23;;;7.80;99.90;;;;;;5090887;28;20078;-73
2024/03/04 00:22:37;;;;;;;34.63;16.63;;;7.80;99.90;;;;;;5080050;28;20056;-73
2024/03/04 00:25:07;;;;;;;41.58;19.00;;;7.80;99.90;;;;;;5091773;28;20135;-74
2024/03/04 00:27:37;;;;;;;34.63;17.77;;;7.80;99.90;;;;;;5093646;28;20071;-74
2024/03/04 00:30:07;;;;;;;39.42;18.50;;;7.80;99.90;;;;;;5093286;28;20093;-74
2024/03/04 00:32:36;;;;;;;30.88;14.75;;;7.70;99.90;;;;;;5097920;28;20485;-74
2024/03/04 00:35:06;;;;;;;32.45;15.63;;;7.70;99.90;;;;;;5093573;28;20051;-74
2024/03/04 00:37:34;;;;;;;30.55;16.08;;;7.70;99.90;;;;;;5093358;28;20044;-74
2024/03/04 00:40:05;;;;;;;31.00;15.35;;;7.70;99.90;;;;;;5092000;28;20445;-73
2024/03/04 00:42:34;;;;;;;30.52;15.30;;;7.70;99.90;;;;;;5095784;28;20571;-74
2024/03/04 00:45:08;;;;;;;28.60;14.40;;;7.70;99.90;;;;;;5095881;28;20042;-74
2024/03/04 00:47:37;;;;;;;28.08;14.27;;;7.70;99.90;;;;;;5095956;28;20048;-74
2024/03/04 00:50:06;;;;;;;28.05;13.95;;;7.80;99.90;;;;;;5095940;28;20399;-73
2024/03/04 00:52:37;;;;;;;26.73;13.80;;;7.80;99.90;;;;;;5097061;28;20495;-74
2024/03/04 00:55:07;;;;;;;27.40;13.52;;;7.80;99.90;;;;;;5086641;28;20044;-74
2024/03/04 00:57:35;;;;;;;27.67;13.55;;;7.80;99.90;;;;;;5096382;28;20051;-74
2024/03/04 01:00:08;;;;;;;24.77;13.98;;;7.80;99.90;;;;;;5087419;28;20111;-74
2024/03/04 01:02:37;;;;;;;;;;;7.80;99.90;;;;;;5072119;28;20052;-74
2024/03/04 01:05:06;;;;;;;27.80;14.43;;;7.80;99.90;;;;;;5087463;28;19920;-74
2024/03/04 01:07:35;;;;;;;26.75;14.00;;;7.80;99.90;;;;;;5088953;28;20041;-74
2024/03/04 01:10:04;;;;;;;27.70;14.00;;;7.80;99.90;;;;;;5085742;28;20055;-75
2024/03/04 01:12:32;;;;;;;25.60;13.38;;;7.80;99.90;;;;;;5095503;28;20400;-74
2024/03/04 01:15:01;;;;;;;26.02;12.80;;;7.80;99.90;;;;;;5082666;28;20107;-74
2024/03/04 01:17:36;;;;;;;25.70;13.60;;;7.80;99.90;;;;;;5089139;28;20051;-74
2024/03/04 01:20:09;;;;;;;30.10;13.38;;;7.80;99.90;;;;;;5085062;28;20043;-74
2024/03/04 01:22:39;;;;;;;24.80;13.13;;;7.70;99.90;;;;;;5095182;28;20051;-74
2024/03/04 01:25:09;;;;;;;30.40;14.00;;;7.70;99.90;;;;;;5089671;28;20044;-74
2024/03/04 01:27:37;;;;;;;26.35;13.20;;;7.70;99.90;;;;;;5113199;28;20040;-74
2024/03/04 01:30:09;;;;;;;24.40;12.60;;;7.70;99.90;;;;;;5095107;28;20036;-74
2024/03/04 01:32:39;;;;;;;24.90;12.83;;;7.50;99.90;;;;;;5091702;28;20438;-74
2024/03/04 01:35:10;;;;;;;24.38;12.80;;;7.70;99.90;;;;;;5089577;28;20055;-74
2024/03/04 01:37:40;;;;;;;26.20;12.88;;;7.70;99.90;;;;;;5116849;28;20497;-74
2024/03/04 01:40:13;;;;;;;28.40;14.18;;;7.60;99.90;;;;;;5107281;28;20556;-74
2024/03/04 01:42:44;;;;;;;27.52;13.75;;;7.60;99.90;;;;;;5094679;28;20144;-74
2024/03/04 01:45:24;;;;;;;29.33;13.77;;;7.60;99.90;;;;;;5094697;28;20044;-74
2024/03/04 01:48:09;;;;;;;27.65;13.85;;;7.60;99.90;;;;;;5096324;28;20055;-73
2024/03/04 01:50:41;;;;;;;29.27;13.85;;;7.60;99.90;;;;;;5096027;28;20131;-74
2024/03/04 01:53:11;;;;;;;26.75;14.02;;;7.60;99.90;;;;;;5094273;28;20507;-74
2024/03/04 01:55:44;;;;;;;29.75;14.10;;;7.60;99.90;;;;;;5094895;28;20494;-74
2024/03/04 01:58:20;;;;;;;24.95;13.10;;;7.50;99.90;;;;;;5094811;28;20051;-74
2024/03/04 02:00:49;;;;;;;26.73;13.32;;;7.50;99.90;;;;;;5094587;28;20067;-74
2024/03/04 02:03:22;;;;;;;27.65;13.23;;;7.60;99.90;;;;;;5087280;28;20052;-74
2024/03/04 02:05:51;;;;;;;;;;;7.60;99.90;;;;;;5076040;28;20033;-74
2024/03/04 02:08:21;;;;;;;27.83;12.50;;;7.50;99.90;;;;;;5075551;28;20371;-74
2024/03/04 02:10:49;;;;;;;29.60;14.10;;;7.50;99.90;;;;;;5091082;28;20503;-74
2024/03/04 02:13:20;;;;;;;27.52;15.02;;;7.40;99.90;;;;;;5093847;28;20462;-74
2024/03/04 02:15:49;;;;;;;26.33;13.55;;;7.40;99.90;;;;;;5086861;28;20089;-74
2024/03/04 02:18:21;;;;;;;26.65;13.32;;;7.40;99.90;;;;;;5095584;28;20087;-74
2024/03/04 02:20:53;;;;;;;27.52;14.10;;;7.40;99.90;;;;;;5094176;28;20055;-74
2024/03/04 02:23:23;;;;;;;26.60;12.73;;;7.40;99.90;;;;;;5095788;28;20106;-74
2024/03/04 02:25:54;;;;;;;29.70;13.93;;;7.30;99.90;;;;;;5093932;28;20051;-74
2024/03/04 02:28:25;;;;;;;28.10;13.32;;;7.30;99.90;;;;;;5095322;28;20409;-74
2024/03/04 02:30:54;;;;;;;29.30;13.85;;;7.40;99.90;;;;;;5095396;28;20047;-74
2024/03/04 02:33:25;;;;;;;29.65;14.73;;;7.30;99.90;;;;;;5093943;28;20499;-74
2024/03/04 02:35:54;;;;;;;27.40;13.55;;;7.30;99.90;;;;;;5089882;28;20042;-74
2024/03/04 02:38:25;;;;;;;27.73;14.50;;;7.30;99.90;;;;;;5075030;28;20098;-74
2024/03/04 02:40:53;;;;;;;23.33;13.50;;;7.40;99.90;;;;;;5075321;28;20045;-74
2024/03/04 02:43:22;;;;;;;25.90;12.40;;;7.40;99.90;;;;;;5074822;28;20082;-74
2024/03/04 02:45:50;;;;;;;24.92;14.05;;;7.30;99.90;;;;;;5085324;28;20048;-74
2024/03/04 02:48:19;;;;;;;24.45;13.95;;;7.40;99.90;;;;;;5095014;28;20072;-74
2024/03/04 02:50:47;;;;;;;25.67;13.43;;;7.30;99.90;;;;;;5094951;28;20074;-74
2024/03/04 02:53:17;;;;;;;28.25;14.27;;;7.30;99.90;;;;;;5093554;28;20094;-74
2024/03/04 02:55:49;;;;;;;27.60;14.60;;;7.20;99.90;;;;;;5090051;28;20044;-74
2024/03/04 02:58:17;;;;;;;24.55;13.10;;;7.30;99.90;;;;;;5079850;28;20075;-74
2024/03/04 03:00:47;;;;;;;29.75;14.32;;;7.20;99.90;;;;;;5087381;28;20472;-74
2024/03/04 03:03:16;;;;;;;29.05;13.73;;;7.20;99.90;;;;;;5074916;28;20059;-74
2024/03/04 03:05:45;;;;;;;25.63;13.07;;;7.20;99.90;;;;;;5093762;28;20126;-74
2024/03/04 03:08:13;;;;;;;29.40;13.65;;;7.20;99.90;;;;;;5098218;28;20159;-74
2024/03/04 03:10:42;;;;;;;32.20;14.60;;;7.20;99.90;;;;;;5093109;28;20044;-74
2024/03/04 03:13:12;;;;;;;31.48;13.90;;;7.20;99.90;;;;;;5093106;28;20054;-74
2024/03/04 03:15:41;;;;;;;26.98;14.43;;;7.20;99.90;;;;;;5082371;28;20032;-74
2024/03/04 03:18:13;;;;;;;30.50;15.20;;;7.20;99.90;;;;;;5094206;28;20127;-74
2024/03/04 03:20:42;;;;;;;28.15;13.68;;;7.10;99.90;;;;;;5094345;28;20055;-74
2024/03/04 03:23:11;;;;;;;28.75;14.40;;;7.20;99.90;;;;;;5094227;28;20123;-74
2024/03/04 03:25:39;;;;;;;27.83;14.05;;;7.10;99.90;;;;;;5092843;28;20048;-74
2024/03/04 03:28:08;;;;;;;31.58;15.13;;;7.10;99.90;;;;;;5089263;28;20048;-74
2024/03/04 03:30:38;;;;;;;28.95;14.57;;;7.10;99.90;;;;;;5073950;28;20047;-75
2024/03/04 03:33:07;;;;;;;33.17;15.43;;;7.20;99.90;;;;;;5073873;28;20099;-74
2024/03/04 03:35:35;;;;;;;30.45;15.52;;;7.10;99.90;;;;;;5089409;28;20054;-74
2024/03/04 03:38:04;;;;;;;34.22;15.70;;;7.10;99.90;;;;;;5092702;28;20051;-74
2024/03/04 03:40:33;;;;;;;33.65;17.00;;;7.10;99.90;;;;;;5094020;28;20131;-74
2024/03/04 03:43:02;;;;;;;31.60;14.63;;;7.10;99.90;;;;;;5109690;28;20048;-74
2024/03/04 03:45:31;;;;;;;33.38;15.95;;;7.10;99.90;;;;;;5097775;28;20371;-74
2024/03/04 03:48:01;;;;;;;29.25;15.13;;;7.20;99.90;;;;;;5112913;28;20043;-74
2024/03/04 03:50:29;;;;;;;30.15;16.30;;;7.20;99.90;;;;;;5113064;28;20514;-74
2024/03/04 03:52:58;;;;;;;33.45;15.35;;;7.20;99.90;;;;;;5114367;28;20057;-74
2024/03/04 03:55:29;;;;;;;32.50;16.73;;;7.20;99.90;;;;;;5114161;28;20066;-74
2024/03/04 03:57:58;;;;;;;30.05;15.65;;;7.20;99.90;;;;;;5114414;28;20482;-74
2024/03/04 04:00:27;;;;;;;37.90;17.90;;;7.20;99.90;;;;;;5107318;28;20048;-74
2024/03/04 04:03:01;;;;;;;30.63;16.00;;;7.10;99.90;;;;;;5093732;28;20047;-74
2024/03/04 04:05:31;;;;;;;34.10;16.60;;;7.10;99.90;;;;;;5092405;28;20481;-74
2024/03/04 04:08:00;;;;;;;31.85;16.75;;;7.00;99.90;;;;;;5092205;28;20067;-74
2024/03/04 04:10:28;;;;;;;32.45;16.23;;;7.00;99.90;;;;;;5093454;28;20036;-74
2024/03/04 04:12:57;;;;;;;34.97;16.33;;;7.00;99.90;;;;;;5109093;28;20036;-74
2024/03/04 04:15:27;;;;;;;32.50;15.48;;;7.00;99.90;;;;;;5093336;28;20105;-74
2024/03/04 04:17:57;;;;;;;30.77;15.57;;;6.90;99.90;;;;;;5091325;28;20106;-74
2024/03/04 04:20:28;;;;;;;31.92;15.88;;;6.90;99.90;;;;;;5092214;28;20514;-74
2024/03/04 04:22:56;;;;;;;30.70;15.73;;;6.90;99.90;;;;;;5093974;28;20047;-75
2024/03/04 04:25:26;;;;;;;30.63;15.07;;;6.90;99.90;;;;;;5093736;28;20498;-74
2024/03/04 04:27:55;;;;;;;38.28;16.67;;;6.90;99.90;;;;;;5092082;28;20073;-75
2024/03/04 04:30:26;;;;;;;31.60;15.10;;;6.90;99.90;;;;;;5093485;28;20093;-75
2024/03/04 04:32:54;;;;;;;36.35;16.17;;;6.90;99.90;;;;;;5092063;28;20098;-74
2024/03/04 04:35:23;;;;;;;31.30;15.65;;;6.90;99.90;;;;;;5093445;28;20040;-74
2024/03/04 04:37:52;;;;;;;32.83;15.10;;;6.80;99.90;;;;;;5092041;28;20503;-74
2024/03/04 04:40:21;;;;;;;31.55;15.43;;;6.80;99.90;;;;;;5093305;28;20051;-74
2024/03/04 04:42:50;;;;;;;30.50;14.98;;;6.80;99.90;;;;;;5093252;28;20050;-74
2024/03/04 04:45:22;;;;;;;31.88;16.23;;;6.80;99.90;;;;;;5108964;28;20052;-74
2024/03/04 04:47:50;;;;;;;35.90;17.25;;;6.70;99.90;;;;;;5093120;28;20040;-75
2024/03/04 04:50:19;;;;;;;31.40;16.63;;;6.60;99.90;;;;;;5093102;28;20123;-74
2024/03/04 04:52:47;;;;;;;34.20;16.45;;;6.60;99.90;;;;;;5091830;28;20052;-74
2024/03/04 04:55:17;;;;;;;35.08;16.25;;;6.60;99.90;;;;;;5091919;28;20082;-74
2024/03/04 04:57:46;;;;;;;35.15;17.20;;;6.60;99.90;;;;;;5091794;28;20040;-74
2024/03/04 05:00:16;;;;;;;29.08;15.73;;;6.60;99.90;;;;;;5093321;28;20123;-74
2024/03/04 05:02:45;;;;;;;31.77;16.45;;;6.60;99.90;;;;;;5093000;28;20048;-74
2024/03/04 05:05:13;;;;;;;30.25;15.57;;;6.50;99.90;;;;;;5091785;28;20499;-74
2024/03/04 05:07:42;;;;;;;33.20;15.43;;;6.50;99.90;;;;;;5092928;28;20487;-74
2024/03/04 05:10:11;;;;;;;28.83;15.05;;;6.50;99.90;;;;;;5093137;28;20059;-74
2024/03/04 05:12:41;;;;;;;32.40;16.10;;;6.60;99.90;;;;;;5093546;28;20076;-74
2024/03/04 05:15:10;;;;;;;33.22;15.93;;;6.50;99.90;;;;;;5091801;28;20101;-74
2024/03/04 05:17:38;;;;;;;29.90;15.40;;;6.60;99.90;;;;;;5108566;28;20499;-74
2024/03/04 05:20:09;;;;;;;32.00;15.52;;;6.50;99.90;;;;;;5108677;28;20052;-74
2024/03/04 05:22:38;;;;;;;30.45;15.55;;;6.60;99.90;;;;;;5108588;28;20059;-74
2024/03/04 05:25:09;;;;;;;35.83;16.40;;;6.50;99.90;;;;;;5091654;28;20132;-74
2024/03/04 05:27:38;;;;;;;30.48;15.98;;;6.60;99.90;;;;;;5093954;28;20514;-74
2024/03/04 05:30:11;;;;;;;36.90;16.23;;;6.60;99.90;;;;;;5112422;28;20388;-74
2024/03/04 05:32:39;;;;;;;31.30;15.65;;;6.60;99.90;;;;;;5097089;28;20494;-74
2024/03/04 05:35:10;;;;;;;35.22;17.65;;;6.50;99.90;;;;;;5096456;28;20122;-74
2024/03/04 05:37:38;;;;;;;38.13;17.77;;;6.60;99.90;;;;;;5096563;28;20130;-74
2024/03/04 05:40:10;;;;;;;38.33;16.77;;;6.50;99.90;;;;;;5095157;28;20518;-74
2024/03/04 05:42:39;;;;;;;33.95;16.48;;;6.60;99.90;;;;;;5095220;28;20410;-74
2024/03/04 05:45:12;;;;;;;33.58;16.75;;;6.50;99.90;;;;;;5096600;28;20048;-74
2024/03/04 05:47:41;;;;;;;36.40;17.38;;;6.50;99.90;;;;;;5095082;28;20044;-74
2024/03/04 05:50:14;;;;;;;37.40;19.48;;;6.50;99.90;;;;;;5095175;28;20052;-74
2024/03/04 05:52:44;;;;;;;;;;;6.50;99.90;;;;;;5096914;28;20075;-74
2024/03/04 05:55:13;;;;;;;34.55;16.42;;;6.50;99.90;;;;;;5096074;28;20390;-74
2024/03/04 05:57:42;;;;;;;36.42;16.48;;;6.50;99.90;;;;;;5094713;28;20548;-74
2024/03/04 06:00:14;;;;;;;42.92;18.38;;;6.50;99.90;;;;;;5096088;28;20048;-75
2024/03/04 06:02:43;;;;;;;36.83;18.00;;;6.50;99.90;;;;;;5105421;28;20081;-74
2024/03/04 06:05:13;;;;;;;34.97;17.08;;;6.60;99.90;;;;;;5116491;28;20041;-74
2024/03/04 06:07:42;;;;;;;32.05;16.73;;;6.60;99.90;;;;;;5116556;28;20039;-74
2024/03/04 06:10:13;;;;;;;37.72;17.15;;;6.60;99.90;;;;;;5116364;28;20506;-74
2024/03/04 06:12:44;;;;;;;33.25;15.85;;;6.60;99.90;;;;;;5115329;28;20077;-75
2024/03/04 06:15:14;;;;;;;33.25;17.35;;;6.60;99.90;;;;;;5114979;28;20048;-75
2024/03/04 06:17:43;;;;;;;34.78;16.33;;;6.60;99.90;;;;;;5114757;28;20063;-75
2024/03/04 06:20:13;;;;;;;35.90;17.88;;;6.60;99.90;;;;;;5116454;28;20398;-74
2024/03/04 06:22:42;;;;;;;39.85;18.65;;;6.60;99.90;;;;;;5114733;28;20052;-74
2024/03/04 06:25:11;;;;;;;39.63;19.42;;;6.70;99.90;;;;;;5064739;28;20104;-74
2024/03/04 06:27:45;;;;;;;37.40;18.27;;;6.60;99.90;;;;;;5093010;28;20051;-74
2024/03/04 06:30:16;;;;;;;39.65;21.15;;;6.70;99.90;;;;;;5095169;28;20051;-74
2024/03/04 06:32:45;;;;;;;43.67;22.08;;;6.70;99.90;;;;;;5094247;28;20097;-74
2024/03/04 06:35:13;;;;;;;41.90;21.17;;;6.80;99.90;;;;;;5094099;28;20422;-74
2024/03/04 06:37:44;;;;;;;42.95;20.60;;;6.90;99.90;;;;;;5095021;28;20147;-74
2024/03/04 06:40:17;;;;;;;36.97;19.40;;;6.90;99.90;;;;;;5093121;28;20050;-74
2024/03/04 06:42:50;;;;;;;39.45;19.20;;;6.90;99.90;;;;;;5095334;28;20048;-74
2024/03/04 06:45:20;;;;;;;30.13;16.40;;;7.10;99.90;;;;;;5097392;28;20139;-74
2024/03/04 06:50:43;;;;;;;32.75;15.10;;;7.10;99.90;;;;;;5058277;28;20048;-75
2024/03/04 06:53:11;;;;;;;33.88;16.48;;;7.20;99.90;;;;;;5095107;28;20044;-75
2024/03/04 06:55:42;;;;;;;34.47;16.42;;;7.30;99.90;;;;;;5095152;28;20036;-75
2024/03/04 06:58:10;;;;;;;29.55;15.75;;;7.40;99.90;;;;;;5094733;28;20503;-75
2024/03/04 07:00:41;;;;;;;30.73;14.57;;;7.50;99.90;;;;;;5094886;28;20047;-75
2024/03/04 07:03:09;;;;;;;31.90;14.60;;;7.50;99.90;;;;;;5094413;28;20032;-74
2024/03/04 07:05:38;;;;;;;31.10;14.43;;;7.60;99.90;;;;;;5055007;28;20094;-75
2024/03/04 07:08:09;;;;;;;25.85;13.88;;;7.60;99.90;;;;;;5091964;28;20400;-75
2024/03/04 07:10:37;;;;;;;29.00;13.80;;;7.70;99.90;;;;;;5046814;28;20040;-75
2024/03/04 07:13:06;;;;;;;30.88;14.40;;;7.80;99.90;;;;;;5105689;28;20066;-75
2024/03/04 07:15:35;;;;;;;23.77;13.38;;;7.80;99.90;;;;;;5089792;28;20101;-74
2024/03/04 07:18:06;;;;;;;25.40;12.40;;;7.90;99.90;;;;;;5090560;28;20083;-75
2024/03/04 07:20:37;;;;;;;24.75;11.90;;;7.90;99.90;;;;;;5108534;27;20502;-76
2024/03/04 07:23:08;;;;;;;23.38;11.57;;;8.00;99.90;;;;;;5091779;28;20051;-76
2024/03/04 07:25:42;;;;;;;29.90;12.48;;;8.10;99.90;;;;;;5087866;28;20052;-75
2024/03/04 07:28:10;;;;;;;29.40;13.50;;;8.10;99.90;;;;;;5088807;28;20462;-75
2024/03/04 07:30:40;;;;;;;24.48;12.70;;;8.00;99.90;;;;;;5088005;28;20044;-76
2024/03/04 07:33:13;;;;;;;27.67;13.55;;;8.00;99.90;;;;;;5097074;28;20044;-76
2024/03/04 07:35:42;;;;;;;26.58;13.27;;;8.00;99.90;;;;;;5089588;28;20051;-75
2024/03/04 07:38:11;;;;;;;23.60;12.50;;;8.10;99.90;;;;;;5086459;28;20562;-76
2024/03/04 07:40:41;;;;;;;25.23;12.25;;;8.30;99.90;;;;;;5083259;28;20079;-76
2024/03/04 07:43:10;;;;;;;22.63;12.15;;;8.30;99.90;;;;;;5067193;28;20398;-77
2024/03/04 07:45:38;;;;;;;26.33;11.85;;;8.30;99.90;;;;;;5090060;28;20058;-76
2024/03/04 07:48:07;;;;;;;23.08;12.05;;;8.30;99.90;;;;;;5084070;28;20051;-77
2024/03/04 07:50:37;;;;;;;27.48;12.52;;;8.50;99.90;;;;;;5084778;28;20158;-76
2024/03/04 07:53:08;;;;;;;26.52;14.00;;;8.40;99.90;;;;;;5092609;28;20521;-77
2024/03/04 07:55:38;;;;;;;25.73;12.80;;;8.50;99.90;;;;;;5101758;27;20063;-77
2024/03/04 07:58:07;;;;;;;24.20;12.05;;;8.60;99.90;;;;;;5086288;28;20036;-77
2024/03/04 08:00:35;;;;;;;26.85;13.55;;;8.80;99.90;;;;;;5088536;28;20064;-77
2024/03/04 08:03:05;;;;;;;24.23;12.50;;;8.70;99.90;;;;;;5085598;28;20068;-79
2024/03/04 08:05:34;;;;;;;26.35;12.35;;;8.80;99.90;;;;;;5087084;28;20135;-77
2024/03/04 08:08:04;;;;;;;26.40;12.80;;;8.90;99.90;;;;;;5087152;28;20044;-78
2024/03/04 08:10:34;;;;;;;25.73;13.10;;;9.10;99.90;;;;;;5085859;28;20123;-77
2024/03/04 08:13:03;;;;;;;26.60;12.43;;;9.20;99.90;;;;;;5084180;28;20144;-77
2024/03/04 08:15:34;;;;;;;25.00;12.43;;;9.30;99.90;;;;;;5085127;28;20059;-77
2024/03/04 08:18:02;;;;;;;29.80;12.82;;;9.30;99.90;;;;;;5102906;28;20044;-77
2024/03/04 08:20:31;;;;;;;26.25;12.98;;;9.50;99.90;;;;;;5082976;28;20044;-76
2024/03/04 08:23:04;;;;;;;25.60;14.07;;;9.50;99.90;;;;;;5085589;28;20044;-77
2024/03/04 08:25:33;;;;;;;26.25;12.90;;;9.60;99.90;;;;;;5087304;28;20052;-75
2024/03/04 08:28:01;;;;;;;22.60;11.63;;;9.70;99.90;;;;;;5084616;28;20511;-76
2024/03/04 08:30:30;;;;;;;21.17;11.07;;;9.60;99.90;;;;;;5103878;28;20040;-79
2024/03/04 08:32:59;;;;;;;24.88;12.52;;;9.60;99.90;;;;;;5081443;28;20075;-78
2024/03/04 08:35:30;;;;;;;24.65;12.70;;;9.70;99.90;;;;;;5082343;28;20464;-76
2024/03/04 08:37:59;;;;;;;22.13;11.60;;;9.90;99.90;;;;;;5083969;28;20115;-77
2024/03/04 08:40:31;;;;;;;26.63;12.13;;;10.00;99.90;;;;;;5096051;28;20052;-78
2024/03/04 08:43:00;;;;;;;26.10;13.02;;;10.10;99.90;;;;;;5083846;28;20525;-78
2024/03/04 08:45:33;;;;;;;26.92;12.63;;;10.10;99.90;;;;;;5077762;28;20134;-76
2024/03/04 08:48:02;;;;;;;22.27;11.40;;;10.20;99.90;;;;;;5084954;28;20033;-78
2024/03/04 08:50:30;;;;;;;23.38;12.45;;;10.30;99.90;;;;;;5084245;28;20380;-77
2024/03/04 08:52:58;;;;;;;29.67;12.18;;;10.30;99.90;;;;;;5082516;28;20137;-78
2024/03/04 08:55:28;;;;;;;26.10;12.60;;;10.30;99.90;;;;;;5079906;28;20407;-79
2024/03/04 08:57:58;;;;;;;23.27;11.45;;;10.30;99.90;;;;;;5099150;28;20052;-77
2024/03/04 09:00:28;;;;;;;24.17;12.07;;;10.50;99.90;;;;;;5087281;28;20072;-78
2024/03/04 09:02:57;;;;;;;22.95;13.00;;;10.50;99.90;;;;;;5081010;28;20131;-77
2024/03/04 09:05:25;;;;;;;25.58;12.80;;;10.60;99.90;;;;;;5085491;28;20154;-77
2024/03/04 09:07:54;;;;;;;22.35;11.73;;;10.70;99.90;;;;;;5088592;28;20063;-77
2024/03/04 09:10:22;;;;;;;22.90;11.77;;;10.80;99.90;;;;;;5086229;28;20049;-79
2024/03/04 09:12:52;;;;;;;21.27;11.90;;;10.80;99.90;;;;;;5088444;28;20051;-79
2024/03/04 09:15:21;;;;;;;22.65;11.57;;;10.80;99.90;;;;;;5086725;28;20048;-76
2024/03/04 09:17:52;;;;;;;25.25;12.32;;;11.00;99.90;;;;;;5089813;28;20061;-80
2024/03/04 09:20:21;;;;;;;22.20;12.15;;;11.10;99.90;;;;;;5083985;28;20558;-82
2024/03/04 09:22:49;;;;;;;25.42;11.77;;;11.10;99.90;;;;;;5081480;28;20477;-79
2024/03/04 09:25:18;;;;;;;23.10;12.95;;;11.10;99.90;;;;;;5086569;28;20457;-78
2024/03/04 09:27:46;;;;;;;24.92;11.90;;;11.20;99.90;;;;;;5089541;28;20051;-79
2024/03/04 09:30:16;;;;;;;24.13;12.60;;;11.20;99.90;;;;;;5087318;28;20150;-77
2024/03/04 09:32:45;;;;;;;23.63;12.15;;;11.30;99.90;;;;;;5096824;27;20040;-79
2024/03/04 09:35:16;;;;;;;25.13;13.50;;;11.30;99.90;;;;;;5086723;28;20068;-78
2024/03/04 09:37:45;;;;;;;21.10;12.25;;;11.40;99.90;;;;;;5085493;28;20546;-77
2024/03/04 09:40:14;;;;;;;24.20;12.50;;;11.50;99.90;;;;;;5088309;28;20055;-80
2024/03/04 09:42:48;;;;;;;22.45;11.98;;;11.40;99.90;;;;;;5087611;28;20047;-80
2024/03/04 09:45:19;;;;;;;27.75;12.90;;;11.40;99.90;;;;;;5100821;27;20049;-77
2024/03/04 09:47:51;;;;;;;31.80;12.68;;;11.50;99.90;;;;;;5092598;28;20043;-78
2024/03/04 09:50:21;;;;;;;21.73;12.50;;;11.60;99.90;;;;;;5100762;27;20055;-79
2024/03/04 09:52:51;;;;;;;27.50;13.38;;;11.70;99.90;;;;;;5102229;28;20292;-80
2024/03/04 09:55:19;;;;;;;23.08;12.38;;;11.80;99.90;;;;;;5085148;28;20036;-79
2024/03/04 09:57:50;;;;;;;26.67;13.15;;;11.90;99.90;;;;;;5085070;28;20579;-79
2024/03/04 10:00:22;;;;;;;21.13;12.40;;;12.00;99.90;;;;;;5087462;28;20044;-78
2024/03/04 10:02:50;;;;;;;26.92;14.40;;;12.10;99.90;;;;;;5091098;28;20048;-76
2024/03/04 10:05:19;;;;;;;23.58;12.13;;;12.20;99.90;;;;;;5088874;28;20423;-76
2024/03/04 10:07:51;;;;;;;25.48;13.57;;;12.30;99.90;;;;;;5083842;28;20039;-79
2024/03/04 10:10:20;;;;;;;23.17;11.95;;;12.40;99.90;;;;;;5079569;28;20048;-78
2024/03/04 10:12:48;;;;;;;20.48;12.05;;;12.40;99.90;;;;;;5096828;28;20053;-78
2024/03/04 10:15:22;;;;;;;23.33;12.18;;;12.50;99.90;;;;;;5092278;28;20052;-77
2024/03/04 10:17:51;;;;;;;22.98;12.60;;;12.50;99.90;;;;;;5100212;28;20053;-75
2024/03/04 10:20:20;;;;;;;21.00;12.13;;;12.40;99.90;;;;;;5085136;28;20127;-76
2024/03/04 10:22:49;;;;;;;23.30;12.45;;;12.70;99.90;;;;;;5083064;28;20044;-75
2024/03/04 10:25:18;;;;;;;21.70;12.02;;;12.80;99.90;;;;;;5098880;28;20147;-76
2024/03/04 10:27:51;;;;;;;22.70;12.80;;;12.70;99.90;;;;;;5098726;27;20064;-76
2024/03/04 10:30:21;;;;;;;;;;;12.80;99.90;;;;;;5089640;28;20054;-77
2024/03/04 10:32:55;;;;;;;20.60;11.45;;;13.00;99.90;;;;;;5090035;28;20398;-75
2024/03/04 10:35:25;;;;;;;20.90;11.40;;;13.10;99.90;;;;;;5083483;28;20049;-75
2024/03/04 10:38:01;;;;;;;20.95;11.95;;;13.20;99.90;;;;;;5079692;28;20059;-79
2024/03/04 10:40:33;;;;;;;17.50;11.20;;;13.20;99.90;;;;;;5101257;28;20089;-75
2024/03/04 10:43:03;;;;;;;22.88;11.88;;;13.10;99.90;;;;;;5077164;28;20419;-76
2024/03/04 10:45:36;;;;;;;23.55;12.38;;;13.30;99.90;;;;;;5088009;28;20100;-76
2024/03/04 10:48:06;;;;;;;20.35;11.63;;;13.50;99.90;;;;;;5084466;28;20418;-76
2024/03/04 10:50:35;;;;;;;22.73;12.45;;;13.50;99.90;;;;;;5098488;28;20155;-77
2024/03/04 10:53:04;;;;;;;23.27;10.77;;;13.50;99.90;;;;;;5087065;28;20044;-75
2024/03/04 10:55:33;;;;;;;20.27;10.52;;;13.60;99.90;;;;;;5097159;28;20055;-78
2024/03/04 10:58:04;;;;;;;19.35;9.80;;;13.60;99.90;;;;;;5082033;28;20050;-75
2024/03/04 11:00:36;;;;;;;23.08;11.55;;;13.70;99.90;;;;;;5084227;28;20039;-75
2024/03/04 11:03:12;;;;;;;19.55;10.48;;;13.90;99.90;;;;;;5082908;28;20403;-75
2024/03/04 11:05:44;;;;;;;18.35;9.68;;;13.90;99.90;;;;;;5084463;28;20059;-77
2024/03/04 11:08:16;;;;;;;18.77;10.43;;;13.90;99.90;;;;;;5083840;28;20044;-76
2024/03/04 11:10:51;;;;;;;18.27;10.02;;;13.90;99.90;;;;;;5076288;28;20036;-75
2024/03/04 11:13:26;;;;;;;19.40;11.15;;;14.20;99.90;;;;;;5078801;28;20044;-75
2024/03/04 11:16:00;;;;;;;21.70;11.10;;;14.20;99.90;;;;;;5080163;28;20411;-75
2024/03/04 11:18:41;;;;;;;21.35;11.30;;;14.30;99.90;;;;;;5085231;28;20043;-75
2024/03/04 11:21:10;;;;;;;20.27;11.05;;;14.30;99.90;;;;;;5101465;28;20094;-77
2024/03/04 11:23:39;;;;;;;18.98;10.52;;;14.40;99.90;;;;;;5085526;28;20063;-76
2024/03/04 11:26:10;;;;;;;18.60;10.50;;;14.50;99.90;;;;;;5078636;28;20041;-76
2024/03/04 11:28:39;;;;;;;17.58;9.00;;;14.50;99.90;;;;;;5100248;27;20458;-75
2024/03/04 11:31:23;;;;;;;13.60;8.27;;;14.40;99.90;;;;;;5103827;27;20498;-75
2024/03/04 11:34:00;;;;;;;17.58;9.27;;;14.70;99.90;;;;;;5098087;28;20048;-76
2024/03/04 11:36:32;;;;;;;18.13;9.00;;;14.70;99.90;;;;;;5081269;28;20048;-75
2024/03/04 11:39:04;;;;;;;17.75;9.45;;;14.90;99.90;;;;;;5081830;28;20067;-75
2024/03/04 11:41:40;;;;;;;14.73;8.43;;;14.80;99.90;;;;;;5082824;28;20070;-76
2024/03/04 11:44:09;;;;;;;17.55;10.48;;;14.80;99.90;;;;;;5078101;28;20051;-76
2024/03/04 11:46:40;;;;;;;18.00;9.20;;;14.90;99.90;;;;;;5090897;28;20127;-76
2024/03/04 11:49:23;;;;;;;13.27;6.38;;;14.90;99.90;;;;;;5099820;28;20529;-75
2024/03/04 11:52:05;;;;;;;15.85;8.30;;;15.00;99.90;;;;;;5107224;27;20526;-75
2024/03/04 11:54:54;;;;;;;15.02;9.07;;;15.10;99.90;;;;;;5097162;28;20093;-76
2024/03/04 11:57:24;;;;;;;17.65;9.98;;;15.20;99.90;;;;;;5097113;27;20063;-76
2024/03/04 11:59:59;;;;;;;17.10;8.93;;;15.20;99.90;;;;;;5099940;28;20086;-75
2024/03/04 12:02:30;;;;;;;17.02;9.48;;;15.30;99.90;;;;;;5086614;28;20058;-76
2024/03/04 12:05:00;;;;;;;16.75;8.75;;;15.40;99.90;;;;;;5084170;28;20044;-77
2024/03/04 12:07:29;;;;;;;13.57;7.22;;;15.30;99.90;;;;;;5081632;28;20647;-78
2024/03/04 12:09:59;;;;;;;12.75;5.50;;;15.60;99.90;;;;;;5084128;28;20085;-78
2024/03/04 12:12:41;;;;;;;13.07;6.00;;;15.80;99.60;;;;;;5084558;28;20051;-77
2024/03/04 12:15:10;;;;;;;10.73;6.40;;;15.70;97.50;;;;;;5081390;28;20056;-76
2024/03/04 12:17:41;;;;;;;10.63;5.70;;;15.50;96.10;;;;;;5086588;28;20047;-76
2024/03/04 12:20:11;;;;;;;8.45;4.32;;;15.60;97.70;;;;;;5081378;28;20139;-72
2024/03/04 12:22:40;;;;;;;7.97;3.50;;;15.70;96.10;;;;;;5095393;28;20056;-73
2024/03/04 12:25:10;;;;;;;7.30;3.28;;;15.80;94.80;;;;;;5085097;28;20194;-74
2024/03/04 12:27:40;;;;;;;6.40;2.92;;;15.80;93.40;;;;;;5078580;28;20074;-72
2024/03/04 12:30:13;;;;;;;10.23;3.88;;;15.90;95.20;;;;;;5085777;28;20137;-73
2024/03/04 12:32:45;;;;;;;9.32;3.72;;;16.10;94.70;;;;;;5081879;28;20400;-74
2024/03/04 12:35:16;;;;;;;6.65;3.72;;;16.00;93.50;;;;;;5082722;28;20059;-73
2024/03/04 12:37:46;;;;;;;9.18;3.92;;;15.90;93.80;;;;;;5083751;28;20044;-72
2024/03/04 12:40:16;;;;;;;10.75;5.25;;;15.90;93.40;;;;;;5078963;28;20040;-73
2024/03/04 12:42:44;;;;;;;9.55;5.03;;;15.90;93.80;;;;;;5096621;28;20041;-73
2024/03/04 12:45:13;;;;;;;8.23;4.82;;;15.90;94.50;;;;;;5088175;28;20068;-74
2024/03/04 12:47:45;;;;;;;9.00;4.97;;;15.90;94.70;;;;;;5100773;28;20059;-73
2024/03/04 12:50:13;;;;;;;9.57;5.07;;;15.80;94.20;;;;;;5090560;28;20490;-75
2024/03/04 12:52:42;;;;;;;12.98;5.32;;;15.90;94.30;;;;;;5081929;28;20499;-73